createdAt,value
2022-12-24T00:01:01.573Z,-8.65
2022-12-24T00:03:28.418Z,-7.58
2022-12-24T00:05:55.169Z,-7.58
2022-12-24T00:08:23.434Z,-7.74
2022-12-24T00:10:53.667Z,-7.88
2022-12-24T00:13:20.638Z,-7.80
2022-12-24T00:15:47.641Z,-8.34
2022-12-24T00:18:14.309Z,-7.70
2022-12-24T00:20:41.188Z,-8.82
2022-12-24T00:23:11.254Z,-7.91
2022-12-24T00:25:38.034Z,-10.11
2022-12-24T00:28:04.897Z,-7.37
2022-12-24T00:30:31.569Z,-7.19
2022-12-24T00:32:58.220Z,-7.82
2022-12-24T00:35:25.289Z,-7.67
2022-12-24T00:37:51.982Z,-8.37
2022-12-24T00:40:19.623Z,-7.68
2022-12-24T00:42:46.256Z,-7.89
2022-12-24T00:45:13.396Z,-7.84
2022-12-24T00:47:39.959Z,-7.85
2022-12-24T00:50:07.467Z,-7.97
2022-12-24T00:52:34.688Z,-8.59
2022-12-24T00:55:01.376Z,-7.31
2022-12-24T00:57:27.943Z,-7.21
2022-12-24T00:59:54.802Z,-9.38
2022-12-24T01:02:22.077Z,-7.61
2022-12-24T01:05:07.460Z,-7.21
2022-12-24T01:07:34.216Z,-7.29
2022-12-24T01:10:00.907Z,-9.89
2022-12-24T01:12:27.724Z,-7.48
2022-12-24T01:14:54.265Z,-7.45
2022-12-24T01:17:21.089Z,-7.41
2022-12-24T01:19:47.847Z,-7.52
2022-12-24T01:22:14.487Z,-7.50
2022-12-24T01:24:42.000Z,-7.70
2022-12-24T01:27:08.938Z,-7.76
2022-12-24T01:29:35.521Z,-7.51
2022-12-24T01:32:02.285Z,-7.37
2022-12-24T01:34:28.902Z,-7.89
2022-12-24T01:36:55.519Z,-7.81
2022-12-24T01:39:22.135Z,-7.78
2022-12-24T01:42:07.231Z,-8.52
2022-12-24T01:44:39.901Z,-7.98
2022-12-24T01:47:11.705Z,-8.06
2022-12-24T01:49:43.153Z,-7.71
2022-12-24T01:52:15.408Z,-9.27
2022-12-24T01:54:48.284Z,-8.25
2022-12-24T01:57:26.132Z,-8.50
2022-12-24T01:59:57.917Z,-8.22
2022-12-24T02:02:25.458Z,-7.86
2022-12-24T02:05:06.675Z,-7.33
2022-12-24T02:07:34.360Z,-8.01
2022-12-24T02:10:01.877Z,-8.01
2022-12-24T02:12:32.427Z,-7.74
2022-12-24T02:14:59.569Z,-8.18
2022-12-24T02:17:32.242Z,-8.18
2022-12-24T02:20:10.787Z,-8.26
2022-12-24T02:23:13.892Z,-8.16
2022-12-24T02:26:22.965Z,-8.23
2022-12-24T02:29:20.287Z,-8.02
2022-12-24T02:32:36.125Z,-8.76
2022-12-24T02:35:11.614Z,-8.01
2022-12-24T02:37:43.900Z,-7.97
2022-12-24T02:40:23.935Z,-8.21
2022-12-24T02:42:57.025Z,-8.19
2022-12-24T02:45:30.520Z,-7.63
2022-12-24T02:47:58.053Z,-8.26
2022-12-24T02:50:25.091Z,-8.91
2022-12-24T02:52:52.439Z,-10.27
2022-12-24T02:55:40.414Z,-8.84
2022-12-24T02:58:38.479Z,-8.41
2022-12-24T03:01:21.972Z,-8.16
2022-12-24T03:03:54.667Z,-7.90
2022-12-24T03:06:40.893Z,-8.25
2022-12-24T03:09:33.069Z,-7.84
2022-12-24T03:12:18.230Z,-8.53
2022-12-24T03:14:46.826Z,-8.91
2022-12-24T03:17:14.015Z,-8.36
2022-12-24T03:19:40.877Z,-8.98
2022-12-24T03:22:10.596Z,-8.78
2022-12-24T03:24:38.035Z,-8.24
2022-12-24T03:27:06.874Z,-8.19
2022-12-24T03:29:33.841Z,-8.09
2022-12-24T03:32:03.462Z,-8.48
2022-12-24T03:34:30.799Z,-9.47
2022-12-24T03:36:57.576Z,-8.94
2022-12-24T03:39:24.365Z,-8.34
2022-12-24T03:41:50.909Z,-8.64
2022-12-24T03:44:17.534Z,-8.42
2022-12-24T03:46:44.094Z,-8.55
2022-12-24T03:49:10.753Z,-8.13
2022-12-24T03:51:37.356Z,-8.25
2022-12-24T03:54:04.021Z,-8.28
2022-12-24T03:56:30.595Z,-8.47
2022-12-24T03:58:57.179Z,-8.59
2022-12-24T04:01:23.881Z,-8.88
2022-12-24T04:03:50.665Z,-8.49
2022-12-24T04:06:17.965Z,-8.25
2022-12-24T04:08:44.970Z,-8.45
2022-12-24T04:11:14.312Z,-8.74
2022-12-24T04:13:40.946Z,-8.44
2022-12-24T04:16:10.812Z,-8.42
2022-12-24T04:18:38.429Z,-8.82
2022-12-24T04:21:06.293Z,-8.83
2022-12-24T04:23:35.011Z,-9.14
2022-12-24T04:26:03.173Z,-8.96
2022-12-24T04:28:30.344Z,-8.89
2022-12-24T04:31:01.086Z,-8.54
2022-12-24T04:33:27.913Z,-8.68
2022-12-24T04:35:54.474Z,-8.48
2022-12-24T04:38:21.142Z,-8.62
2022-12-24T04:40:47.730Z,-8.55
2022-12-24T04:43:14.882Z,-9.38
2022-12-24T04:45:41.533Z,-9.45
2022-12-24T04:48:08.349Z,-9.39
2022-12-24T04:50:34.971Z,-9.07
2022-12-24T04:53:01.621Z,-9.42
2022-12-24T04:55:28.181Z,-9.78
2022-12-24T04:57:54.812Z,-11.04
2022-12-24T05:00:21.596Z,-9.20
2022-12-24T05:02:48.398Z,-9.28
2022-12-24T05:05:15.100Z,-9.60
2022-12-24T05:08:00.227Z,-9.40
2022-12-24T05:10:26.860Z,-9.34
2022-12-24T05:12:53.481Z,-9.53
2022-12-24T05:15:20.245Z,-9.55
2022-12-24T05:17:46.862Z,-10.87
2022-12-24T05:20:13.803Z,-9.02
2022-12-24T05:22:58.966Z,-9.62
2022-12-24T05:25:48.668Z,-8.76
2022-12-24T05:28:15.654Z,-8.77
2022-12-24T05:30:42.231Z,-9.86
2022-12-24T05:33:08.892Z,-9.78
2022-12-24T05:35:35.459Z,-9.26
2022-12-24T05:38:02.111Z,-9.55
2022-12-24T05:40:28.678Z,-9.51
2022-12-24T05:42:55.335Z,-10.27
2022-12-24T05:45:21.947Z,-10.25
2022-12-24T05:47:48.556Z,-10.19
2022-12-24T05:50:15.202Z,-9.94
2022-12-24T05:52:41.887Z,-9.43
2022-12-24T05:55:09.237Z,-9.81
2022-12-24T05:57:35.909Z,-10.04
2022-12-24T06:00:02.481Z,-9.54
2022-12-24T06:02:38.956Z,-9.38
2022-12-24T06:05:05.961Z,-9.14
2022-12-24T06:07:32.577Z,-8.94
2022-12-24T06:09:59.211Z,-10.18
2022-12-24T06:12:26.068Z,-9.55
2022-12-24T06:14:52.700Z,-9.43
2022-12-24T06:17:19.245Z,-9.68
2022-12-24T06:19:45.843Z,-9.59
2022-12-24T06:22:12.402Z,-9.61
2022-12-24T06:24:38.997Z,-9.69
2022-12-24T06:27:05.629Z,-8.99
2022-12-24T06:29:32.278Z,-8.76
2022-12-24T06:31:59.067Z,-9.50
2022-12-24T06:34:25.721Z,-9.90
2022-12-24T06:36:52.299Z,-9.85
2022-12-24T06:39:19.030Z,-9.84
2022-12-24T06:41:45.652Z,-9.99
2022-12-24T06:44:12.294Z,-9.34
2022-12-24T06:46:39.016Z,-9.40
2022-12-24T06:49:05.707Z,-9.28
2022-12-24T06:51:32.263Z,-9.32
2022-12-24T06:53:59.021Z,-11.18
2022-12-24T06:56:25.606Z,-9.03
2022-12-24T06:58:52.287Z,-9.71
2022-12-24T07:01:20.579Z,-8.82
2022-12-24T07:03:47.940Z,-8.85
2022-12-24T07:06:19.667Z,-9.19
2022-12-24T07:08:46.331Z,-9.57
2022-12-24T07:11:12.919Z,-9.39
2022-12-24T07:13:39.572Z,-9.33
2022-12-24T07:16:06.536Z,-9.21
2022-12-24T07:18:33.519Z,-9.07
2022-12-24T07:21:01.226Z,-9.93
2022-12-24T07:23:28.031Z,-10.15
2022-12-24T07:25:54.633Z,-11.09
2022-12-24T07:28:27.433Z,-9.75
2022-12-24T07:30:55.899Z,-9.51
2022-12-24T07:33:23.495Z,-9.46
2022-12-24T07:35:58.636Z,-9.78
2022-12-24T07:38:25.228Z,-9.52
2022-12-24T07:40:51.856Z,-9.76
2022-12-24T07:43:18.573Z,-9.46
2022-12-24T07:45:45.173Z,-9.15
2022-12-24T07:48:11.758Z,-9.80
2022-12-24T07:50:38.392Z,-9.78
2022-12-24T07:53:04.925Z,-10.62
2022-12-24T07:55:31.503Z,-9.46
2022-12-24T07:57:58.228Z,-9.77
2022-12-24T08:00:24.911Z,-9.95
2022-12-24T08:02:51.671Z,-10.13
2022-12-24T08:05:18.452Z,-10.45
2022-12-24T08:07:44.992Z,-9.24
2022-12-24T08:10:11.622Z,-10.36
2022-12-24T08:12:38.189Z,-9.46
2022-12-24T08:15:05.290Z,-10.19
2022-12-24T08:17:32.485Z,-9.31
2022-12-24T08:19:59.355Z,-9.62
2022-12-24T08:22:25.964Z,-10.43
2022-12-24T08:24:52.547Z,-10.16
2022-12-24T08:27:19.108Z,-11.30
2022-12-24T08:29:45.708Z,-10.72
2022-12-24T08:32:12.248Z,-9.86
2022-12-24T08:34:38.831Z,-9.93
2022-12-24T08:37:05.513Z,-9.52
2022-12-24T08:39:32.301Z,-9.63
2022-12-24T08:41:58.927Z,-9.94
2022-12-24T08:44:25.604Z,-10.56
2022-12-24T08:46:52.318Z,-11.30
2022-12-24T08:49:18.956Z,-9.61
2022-12-24T08:51:45.559Z,-10.10
2022-12-24T08:54:12.185Z,-9.15
2022-12-24T08:56:38.823Z,-11.17
2022-12-24T08:59:05.585Z,-9.00
2022-12-24T09:01:32.669Z,-9.46
2022-12-24T09:04:01.612Z,-9.11
2022-12-24T09:06:28.184Z,-9.33
2022-12-24T09:08:54.764Z,-8.61
2022-12-24T09:11:22.438Z,-8.59
2022-12-24T09:13:49.161Z,-9.57
2022-12-24T09:16:16.015Z,-9.08
2022-12-24T09:18:43.104Z,-8.85
2022-12-24T09:21:14.444Z,-9.73
2022-12-24T09:23:43.328Z,-8.74
2022-12-24T09:26:14.172Z,-9.59
2022-12-24T09:28:40.874Z,-8.75
2022-12-24T09:31:07.667Z,-8.61
2022-12-24T09:33:37.355Z,-8.35
2022-12-24T09:36:05.050Z,-8.48
2022-12-24T09:38:32.120Z,-9.47
2022-12-24T09:41:03.818Z,-8.65
2022-12-24T09:43:37.302Z,-8.19
2022-12-24T09:46:13.755Z,-8.00
2022-12-24T09:48:45.530Z,-8.50
2022-12-24T09:51:39.805Z,-8.58
2022-12-24T09:54:37.620Z,-8.39
2022-12-24T09:57:13.878Z,-8.29
2022-12-24T09:59:43.178Z,-8.55
2022-12-24T10:02:16.920Z,-9.65
2022-12-24T10:04:45.511Z,-9.48
2022-12-24T10:07:54.440Z,-9.06
2022-12-24T10:10:35.275Z,-9.73
2022-12-24T10:13:18.384Z,-9.59
2022-12-24T10:16:19.976Z,-9.85
2022-12-24T10:19:03.012Z,-9.38
2022-12-24T10:22:08.144Z,-9.89
2022-12-24T10:24:50.011Z,-10.28
2022-12-24T10:27:21.630Z,-10.51
2022-12-24T10:29:56.288Z,-9.83
2022-12-24T10:32:26.786Z,-10.18
2022-12-24T10:35:04.466Z,-9.74
2022-12-24T10:37:31.631Z,-11.13
2022-12-24T10:40:00.271Z,-9.30
2022-12-24T10:42:38.428Z,-9.25
2022-12-24T10:45:07.785Z,-9.11
2022-12-24T10:47:37.987Z,-10.43
2022-12-24T10:50:15.648Z,-8.90
2022-12-24T10:52:45.568Z,-9.17
2022-12-24T10:55:24.268Z,-8.96
2022-12-24T10:58:02.547Z,-8.91
2022-12-24T11:00:35.564Z,-9.38
2022-12-24T11:03:25.389Z,-8.99
2022-12-24T11:06:10.634Z,-9.42
2022-12-24T11:08:42.367Z,-9.13
2022-12-24T11:11:13.608Z,-9.70
2022-12-24T11:13:55.383Z,-9.31
2022-12-24T11:16:33.530Z,-8.72
2022-12-24T11:19:04.540Z,-8.52
2022-12-24T11:21:37.829Z,-8.74
2022-12-24T11:24:13.630Z,-8.99
2022-12-24T11:26:43.029Z,-8.96
2022-12-24T11:29:14.605Z,-8.61
2022-12-24T11:31:43.595Z,-9.88
2022-12-24T11:34:31.558Z,-9.38
2022-12-24T11:37:17.426Z,-9.74
2022-12-24T11:39:49.443Z,-8.61
2022-12-24T11:42:28.444Z,-9.07
2022-12-24T11:44:57.687Z,-9.81
2022-12-24T11:47:38.689Z,-9.55
2022-12-24T11:50:26.826Z,-8.89
2022-12-24T11:53:02.777Z,-9.05
2022-12-24T11:55:48.492Z,-9.28
2022-12-24T11:58:27.000Z,-8.68
2022-12-24T12:01:08.671Z,-8.77
2022-12-24T12:03:42.957Z,-9.07
2022-12-24T12:06:27.580Z,-8.82
2022-12-24T12:09:02.786Z,-8.73
2022-12-24T12:11:30.968Z,-8.68
2022-12-24T12:14:01.445Z,-8.86
2022-12-24T12:16:59.273Z,-8.93
2022-12-24T12:19:29.084Z,-9.49
2022-12-24T12:21:55.811Z,-8.43
2022-12-24T12:24:33.795Z,-9.00
2022-12-24T12:27:27.856Z,-8.69
2022-12-24T12:30:00.697Z,-10.93
2022-12-24T12:32:42.426Z,-9.89
2022-12-24T12:35:15.268Z,-8.86
2022-12-24T12:37:55.908Z,-10.04
2022-12-24T12:40:29.151Z,-9.12
2022-12-24T12:43:24.803Z,-8.84
2022-12-24T12:45:58.331Z,-8.67
2022-12-24T12:49:02.943Z,-8.74
2022-12-24T12:52:02.224Z,-8.69
2022-12-24T12:54:54.233Z,-8.59
2022-12-24T12:57:26.901Z,-8.90
2022-12-24T13:00:05.052Z,-8.27
2022-12-24T13:02:42.877Z,-9.87
2022-12-24T13:05:50.056Z,-8.70
2022-12-24T13:08:38.738Z,-10.32
2022-12-24T13:11:43.927Z,-8.12
2022-12-24T13:14:35.581Z,-9.19
2022-12-24T13:18:07.224Z,-8.37
2022-12-24T13:20:42.785Z,-10.53
2022-12-24T13:23:17.474Z,-9.25
2022-12-24T13:25:50.716Z,-9.00
2022-12-24T13:28:20.475Z,-8.44
2022-12-24T13:30:49.612Z,-8.19
2022-12-24T13:33:38.082Z,-8.39
2022-12-24T13:36:06.324Z,-8.62
2022-12-24T13:38:40.725Z,-9.32
2022-12-24T13:41:38.236Z,-8.53
2022-12-24T13:44:14.846Z,-8.60
2022-12-24T13:46:51.165Z,-8.62
2022-12-24T13:49:22.063Z,-8.42
2022-12-24T13:51:50.730Z,-8.14
2022-12-24T13:54:23.103Z,-9.23
2022-12-24T13:56:49.843Z,-8.18
2022-12-24T13:59:39.364Z,-8.39
2022-12-24T14:02:20.757Z,-9.01
2022-12-24T14:04:51.240Z,-8.22
2022-12-24T14:07:20.288Z,-8.16
2022-12-24T14:09:51.105Z,-8.29
2022-12-24T14:12:47.430Z,-8.45
2022-12-24T14:15:46.396Z,-8.86
2022-12-24T14:18:22.423Z,-8.65
2022-12-24T14:20:55.109Z,-8.52
2022-12-24T14:23:37.408Z,-9.53
2022-12-24T14:26:11.841Z,-8.51
2022-12-24T14:28:55.509Z,-9.32
2022-12-24T14:31:22.492Z,-9.04
2022-12-24T14:33:49.327Z,-8.79
2022-12-24T14:36:21.933Z,-8.47
2022-12-24T14:38:49.824Z,-10.03
2022-12-24T14:41:30.153Z,-8.74
2022-12-24T14:44:07.543Z,-9.57
2022-12-24T14:46:54.232Z,-8.83
2022-12-24T14:49:38.880Z,-8.48
2022-12-24T14:52:37.769Z,-9.04
2022-12-24T14:55:29.513Z,-9.13
2022-12-24T14:58:18.105Z,-9.29
2022-12-24T15:00:45.055Z,-9.27
2022-12-24T15:03:17.996Z,-9.16
2022-12-24T15:05:45.812Z,-8.90
2022-12-24T15:08:18.872Z,-9.06
2022-12-24T15:10:52.185Z,-9.61
2022-12-24T15:13:29.592Z,-9.22
2022-12-24T15:15:58.248Z,-9.51
2022-12-24T15:18:32.343Z,-10.10
2022-12-24T15:21:04.584Z,-9.59
2022-12-24T15:23:35.189Z,-10.16
2022-12-24T15:26:14.026Z,-9.64
2022-12-24T15:28:40.679Z,-10.25
2022-12-24T15:31:12.656Z,-9.96
2022-12-24T15:33:39.770Z,-9.88
2022-12-24T15:36:08.136Z,-9.90
2022-12-24T15:38:37.998Z,-10.09
2022-12-24T15:41:08.630Z,-10.27
2022-12-24T15:43:40.629Z,-9.82
2022-12-24T15:46:07.821Z,-9.28
2022-12-24T15:48:38.209Z,-9.78
2022-12-24T15:51:06.132Z,-9.38
2022-12-24T15:53:35.992Z,-9.74
2022-12-24T15:56:07.004Z,-10.20
2022-12-24T15:58:37.251Z,-9.66
2022-12-24T16:01:10.099Z,-9.58
2022-12-24T16:03:39.812Z,-9.80
2022-12-24T16:06:13.628Z,-9.98
2022-12-24T16:08:42.177Z,-10.31
2022-12-24T16:11:10.343Z,-9.50
2022-12-24T16:13:49.207Z,-9.32
2022-12-24T16:16:18.061Z,-10.33
2022-12-24T16:18:56.853Z,-10.59
2022-12-24T16:21:44.220Z,-10.19
2022-12-24T16:24:17.086Z,-10.18
2022-12-24T16:26:43.856Z,-10.09
2022-12-24T16:29:12.410Z,-9.92
2022-12-24T16:31:45.361Z,-10.08
2022-12-24T16:34:17.511Z,-11.56
2022-12-24T16:36:45.848Z,-11.86
2022-12-24T16:39:24.714Z,-10.19
2022-12-24T16:42:10.812Z,-10.35
2022-12-24T16:44:38.023Z,-9.81
2022-12-24T16:47:10.897Z,-10.05
2022-12-24T16:49:38.631Z,-9.64
2022-12-24T16:52:16.565Z,-9.68
2022-12-24T16:54:43.234Z,-9.66
2022-12-24T16:57:10.735Z,-9.97
2022-12-24T16:59:37.928Z,-9.91
2022-12-24T17:02:10.882Z,-9.67
2022-12-24T17:04:40.919Z,-9.81
2022-12-24T17:07:08.183Z,-9.77
2022-12-24T17:09:34.821Z,-9.47
2022-12-24T17:12:01.496Z,-9.78
2022-12-24T17:14:28.227Z,-10.16
2022-12-24T17:16:54.864Z,-10.12
2022-12-24T17:19:21.533Z,-9.59
2022-12-24T17:21:48.138Z,-9.54
2022-12-24T17:24:14.785Z,-10.03
2022-12-24T17:26:43.533Z,-9.94
2022-12-24T17:29:10.498Z,-9.82
2022-12-24T17:31:40.778Z,-9.71
2022-12-24T17:34:07.485Z,-10.58
2022-12-24T17:36:34.496Z,-10.36
2022-12-24T17:39:01.133Z,-9.77
2022-12-24T17:41:27.822Z,-9.89
2022-12-24T17:43:54.474Z,-9.47
2022-12-24T17:46:23.297Z,-9.80
2022-12-24T17:48:51.793Z,-9.82
2022-12-24T17:51:21.237Z,-9.62
2022-12-24T17:53:48.533Z,-9.59
2022-12-24T17:56:15.978Z,-10.25
2022-12-24T17:58:44.466Z,-10.27
2022-12-24T18:01:16.544Z,-10.10
2022-12-24T18:03:44.101Z,-10.10
2022-12-24T18:06:12.208Z,-12.96
2022-12-24T18:08:40.380Z,-10.07
2022-12-24T18:11:14.920Z,-9.69
2022-12-24T18:13:42.807Z,-9.87
2022-12-24T18:16:26.708Z,-9.85
2022-12-24T18:18:54.786Z,-10.53
2022-12-24T18:21:24.140Z,-10.42
2022-12-24T18:23:52.576Z,-10.03
2022-12-24T18:26:20.474Z,-9.90
2022-12-24T18:28:47.409Z,-11.16
2022-12-24T18:31:17.781Z,-10.04
2022-12-24T18:33:46.253Z,-9.49
2022-12-24T18:36:17.164Z,-10.85
2022-12-24T18:38:43.891Z,-12.67
2022-12-24T18:41:23.079Z,-10.25
2022-12-24T18:43:50.321Z,-11.65
2022-12-24T18:46:20.345Z,-11.10
2022-12-24T18:48:47.462Z,-10.06
2022-12-24T18:51:14.490Z,-9.79
2022-12-24T18:53:41.526Z,-9.65
2022-12-24T18:56:13.301Z,-9.86
2022-12-24T18:58:42.149Z,-9.90
2022-12-24T19:01:22.208Z,-10.00
2022-12-24T19:03:51.115Z,-9.75
2022-12-24T19:06:18.576Z,-9.99
2022-12-24T19:09:01.802Z,-10.57
2022-12-24T19:11:31.111Z,-9.99
2022-12-24T19:13:58.283Z,-9.98
2022-12-24T19:16:25.869Z,-10.10
2022-12-24T19:18:52.553Z,-9.53
2022-12-24T19:21:19.377Z,-12.96
2022-12-24T19:23:46.930Z,-10.17
2022-12-24T19:26:16.186Z,-10.26
2022-12-24T19:28:43.556Z,-9.50
2022-12-24T19:31:19.935Z,-9.46
2022-12-24T19:33:51.257Z,-9.47
2022-12-24T19:36:21.140Z,-9.36
2022-12-24T19:38:48.172Z,-9.90
2022-12-24T19:41:20.126Z,-10.73
2022-12-24T19:43:50.057Z,-9.69
2022-12-24T19:46:20.758Z,-9.99
2022-12-24T19:48:52.645Z,-10.04
2022-12-24T19:51:20.670Z,-10.04
2022-12-24T19:53:48.089Z,-10.35
2022-12-24T19:56:16.138Z,-10.10
2022-12-24T19:58:43.151Z,-9.96
2022-12-24T20:01:16.473Z,-10.20
2022-12-24T20:03:44.704Z,-10.18
2022-12-24T20:06:12.193Z,-12.29
2022-12-24T20:08:39.696Z,-10.21
2022-12-24T20:11:08.982Z,-9.92
2022-12-24T20:13:37.173Z,-10.46
2022-12-24T20:16:09.404Z,-9.67
2022-12-24T20:18:36.646Z,-10.35
2022-12-24T20:21:05.693Z,-11.05
2022-12-24T20:23:33.245Z,-11.32
2022-12-24T20:26:02.271Z,-10.07
2022-12-24T20:28:31.206Z,-9.57
2022-12-24T20:30:58.189Z,-11.16
2022-12-24T20:33:24.907Z,-9.67
2022-12-24T20:35:51.690Z,-10.02
2022-12-24T20:38:18.506Z,-10.46
2022-12-24T20:40:46.434Z,-9.80
2022-12-24T20:43:13.543Z,-9.76
2022-12-24T20:45:41.047Z,-9.69
2022-12-24T20:48:08.375Z,-10.58
2022-12-24T20:50:35.029Z,-10.03
2022-12-24T20:53:01.864Z,-10.38
2022-12-24T20:55:28.800Z,-10.23
2022-12-24T20:57:55.409Z,-11.19
2022-12-24T21:00:22.309Z,-10.80
2022-12-24T21:02:49.002Z,-9.81
2022-12-24T21:05:15.902Z,-9.55
2022-12-24T21:07:43.589Z,-9.34
2022-12-24T21:10:13.535Z,-9.32
2022-12-24T21:12:52.132Z,-11.33
2022-12-24T21:15:20.951Z,-10.02
2022-12-24T21:17:48.503Z,-10.78
2022-12-24T21:20:16.136Z,-9.52
2022-12-24T21:22:43.236Z,-9.15
2022-12-24T21:25:11.650Z,-10.36
2022-12-24T21:27:38.682Z,-10.26
2022-12-24T21:30:08.374Z,-9.32
2022-12-24T21:32:36.151Z,-9.88
2022-12-24T21:35:03.716Z,-9.49
2022-12-24T21:37:30.687Z,-10.07
2022-12-24T21:39:57.315Z,-10.00
2022-12-24T21:42:23.996Z,-9.40
2022-12-24T21:44:50.706Z,-9.83
2022-12-24T21:47:17.421Z,-9.10
2022-12-24T21:50:02.598Z,-9.52
2022-12-24T21:52:29.257Z,-9.29
2022-12-24T21:54:55.922Z,-8.77
2022-12-24T21:57:41.015Z,-8.79
2022-12-24T22:00:26.461Z,-8.85
2022-12-24T22:02:56.712Z,-11.79
2022-12-24T22:05:26.062Z,-8.74
2022-12-24T22:08:12.808Z,-8.85
2022-12-24T22:10:59.125Z,-9.07
2022-12-24T22:13:25.852Z,-9.25
2022-12-24T22:15:53.852Z,-10.48
2022-12-24T22:18:23.473Z,-9.08
2022-12-24T22:20:51.098Z,-9.30
2022-12-24T22:23:18.915Z,-9.92
2022-12-24T22:25:47.156Z,-9.65
2022-12-24T22:28:14.366Z,-9.42
2022-12-24T22:30:42.756Z,-9.11
2022-12-24T22:33:09.907Z,-9.74
2022-12-24T22:35:40.789Z,-9.17
2022-12-24T22:38:09.408Z,-8.90
2022-12-24T22:40:38.582Z,-8.83
2022-12-24T22:43:05.347Z,-8.50
2022-12-24T22:45:32.004Z,-8.26
2022-12-24T22:47:58.739Z,-8.36
2022-12-24T22:50:25.523Z,-8.51
2022-12-24T22:52:53.261Z,-8.45
2022-12-24T22:55:20.847Z,-8.53
2022-12-24T22:57:50.467Z,-9.21
2022-12-24T23:00:36.800Z,-8.37
2022-12-24T23:03:04.417Z,-8.40
2022-12-24T23:05:31.179Z,-8.48
2022-12-24T23:07:57.931Z,-8.08
2022-12-24T23:10:24.700Z,-7.90
2022-12-24T23:13:14.858Z,-8.53
2022-12-24T23:15:42.649Z,-8.22
2022-12-24T23:18:09.689Z,-7.97
2022-12-24T23:20:42.325Z,-8.09
2022-12-24T23:23:09.302Z,-9.30
2022-12-24T23:25:35.859Z,-9.89
2022-12-24T23:28:02.519Z,-8.30
2022-12-24T23:30:29.291Z,-8.23
2022-12-24T23:32:55.868Z,-8.12
2022-12-24T23:35:22.458Z,-8.11
2022-12-24T23:37:49.174Z,-8.53
2022-12-24T23:40:16.061Z,-8.26
2022-12-24T23:42:42.748Z,-8.47
2022-12-24T23:45:09.871Z,-8.67
2022-12-24T23:47:36.505Z,-8.36
2022-12-24T23:50:04.444Z,-8.26
2022-12-24T23:52:31.068Z,-8.25
2022-12-24T23:54:57.729Z,-8.15
2022-12-24T23:57:24.478Z,-8.80
2022-12-24T23:59:51.173Z,-8.00
